createdAt,value
2022-09-29T00:01:55.225Z,2.70
2022-09-29T00:03:57.265Z,2.90
2022-09-29T00:06:01.289Z,3.23
2022-09-29T00:08:03.399Z,2.50
2022-09-29T00:10:05.474Z,3.10
2022-09-29T00:12:07.460Z,2.60
2022-09-29T00:14:09.505Z,2.90
2022-09-29T00:16:11.470Z,2.93
2022-09-29T00:18:14.833Z,2.67
2022-09-29T00:20:17.669Z,2.43
2022-09-29T00:22:20.514Z,2.60
2022-09-29T00:24:22.283Z,2.90
2022-09-29T00:26:24.868Z,3.20
2022-09-29T00:28:26.654Z,2.70
2022-09-29T00:30:31.582Z,2.80
2022-09-29T00:32:33.269Z,2.60
2022-09-29T00:34:35.381Z,2.57
2022-09-29T00:36:38.112Z,3.03
2022-09-29T00:38:41.170Z,2.67
2022-09-29T00:40:43.101Z,2.97
2022-09-29T00:42:45.294Z,2.80
2022-09-29T00:44:53.318Z,2.30
2022-09-29T00:47:04.994Z,2.87
2022-09-29T00:49:15.685Z,2.50
2022-09-29T00:51:19.680Z,2.77
2022-09-29T00:53:23.320Z,2.90
2022-09-29T00:55:36.743Z,3.10
2022-09-29T00:57:54.662Z,2.60
2022-09-29T01:00:09.026Z,2.20
2022-09-29T01:02:11.045Z,2.77
2022-09-29T01:04:19.063Z,2.97
2022-09-29T01:06:27.438Z,2.63
2022-09-29T01:08:44.537Z,3.10
2022-09-29T01:10:49.390Z,2.10
2022-09-29T01:12:51.398Z,2.27
2022-09-29T01:14:55.010Z,3.10
2022-09-29T01:16:57.032Z,3.17
2022-09-29T01:19:00.820Z,3.03
2022-09-29T01:21:36.474Z,2.73
2022-09-29T01:24:16.435Z,2.70
2022-09-29T01:26:39.130Z,2.53
2022-09-29T01:29:10.982Z,2.77
2022-09-29T01:31:29.900Z,2.47
2022-09-29T01:33:50.258Z,2.80
2022-09-29T01:36:11.601Z,2.87
2022-09-29T01:38:46.287Z,2.50
2022-09-29T01:41:02.049Z,2.30
2022-09-29T01:43:29.941Z,2.40
2022-09-29T01:45:36.607Z,2.20
2022-09-29T01:47:47.017Z,2.60
2022-09-29T01:50:03.870Z,2.80
2022-09-29T01:52:18.521Z,2.63
2022-09-29T01:54:30.678Z,2.43
2022-09-29T01:56:42.477Z,3.10
2022-09-29T01:59:04.727Z,2.37
2022-09-29T02:01:12.335Z,2.43
2022-09-29T02:03:30.406Z,3.00
2022-09-29T02:05:48.512Z,2.43
2022-09-29T02:07:50.840Z,2.73
2022-09-29T02:10:00.638Z,2.50
2022-09-29T02:12:05.198Z,2.60
2022-09-29T02:14:19.286Z,2.17
2022-09-29T02:16:27.348Z,2.30
2022-09-29T02:19:03.126Z,2.47
2022-09-29T02:21:05.754Z,2.33
2022-09-29T02:23:07.770Z,2.40
2022-09-29T02:25:12.940Z,2.43
2022-09-29T02:27:14.863Z,2.20
2022-09-29T02:29:17.225Z,2.13
2022-09-29T02:31:20.954Z,2.40
2022-09-29T02:33:24.869Z,2.33
2022-09-29T02:35:40.092Z,2.70
2022-09-29T02:38:03.936Z,3.00
2022-09-29T02:40:15.202Z,2.57
2022-09-29T02:42:25.954Z,2.50
2022-09-29T02:44:48.195Z,2.20
2022-09-29T02:47:13.847Z,2.10
2022-09-29T02:49:43.413Z,2.80
2022-09-29T02:51:50.571Z,2.67
2022-09-29T02:54:18.431Z,2.73
2022-09-29T02:56:45.772Z,2.20
2022-09-29T02:59:04.170Z,2.40
2022-09-29T03:01:08.870Z,2.10
2022-09-29T03:03:10.953Z,2.40
2022-09-29T03:05:19.282Z,2.23
2022-09-29T03:07:22.658Z,2.10
2022-09-29T03:09:24.353Z,2.07
2022-09-29T03:11:26.025Z,2.00
2022-09-29T03:13:27.693Z,2.00
2022-09-29T03:15:29.747Z,1.80
2022-09-29T03:17:31.360Z,1.80
2022-09-29T03:19:33.004Z,1.83
2022-09-29T03:21:35.483Z,1.90
2022-09-29T03:23:37.192Z,2.20
2022-09-29T03:25:38.788Z,2.20
2022-09-29T03:27:41.314Z,2.10
2022-09-29T03:29:43.083Z,2.03
2022-09-29T03:31:45.216Z,2.03
2022-09-29T03:33:49.049Z,1.67
2022-09-29T03:35:51.028Z,2.40
2022-09-29T03:37:57.801Z,1.90
2022-09-29T03:39:59.500Z,1.63
2022-09-29T03:42:01.138Z,2.20
2022-09-29T03:44:03.405Z,2.10
2022-09-29T03:46:06.024Z,2.20
2022-09-29T03:48:09.645Z,2.30
2022-09-29T03:50:12.913Z,2.20
2022-09-29T03:52:14.624Z,2.40
2022-09-29T03:54:17.275Z,2.00
2022-09-29T03:56:18.939Z,7.10
2022-09-29T03:58:21.317Z,6.63
2022-09-29T04:00:22.983Z,6.93
2022-09-29T04:02:25.386Z,6.63
2022-09-29T04:04:28.012Z,6.07
2022-09-29T04:06:30.013Z,4.57
2022-09-29T04:08:31.763Z,4.13
2022-09-29T04:10:37.585Z,3.43
2022-09-29T04:12:41.141Z,3.57
2022-09-29T04:14:43.070Z,3.40
2022-09-29T04:16:44.845Z,3.00
2022-09-29T04:18:46.897Z,2.93
2022-09-29T04:20:49.158Z,2.60
2022-09-29T04:22:51.278Z,2.73
2022-09-29T04:24:52.867Z,4.57
2022-09-29T04:26:54.982Z,3.90
2022-09-29T04:28:56.622Z,2.97
2022-09-29T04:30:58.612Z,4.33
2022-09-29T04:33:00.440Z,6.10
2022-09-29T04:35:02.162Z,6.90
2022-09-29T04:37:04.802Z,6.23
2022-09-29T04:39:07.423Z,5.93
2022-09-29T04:41:09.169Z,4.57
2022-09-29T04:43:10.955Z,4.50
2022-09-29T04:45:12.730Z,3.30
2022-09-29T04:47:14.454Z,3.20
2022-09-29T04:49:16.102Z,3.97
2022-09-29T04:51:18.193Z,3.60
2022-09-29T04:53:20.890Z,3.53
2022-09-29T04:55:23.239Z,3.50
2022-09-29T04:57:25.001Z,3.87
2022-09-29T04:59:27.830Z,3.33
2022-09-29T05:01:30.097Z,3.53
2022-09-29T05:03:32.857Z,4.33
2022-09-29T05:05:34.836Z,3.80
2022-09-29T05:07:37.707Z,4.47
2022-09-29T05:09:40.142Z,3.90
2022-09-29T05:11:41.768Z,4.00
2022-09-29T05:13:43.669Z,3.77
2022-09-29T05:15:45.337Z,4.50
2022-09-29T05:17:47.356Z,3.50
2022-09-29T05:19:50.413Z,3.60
2022-09-29T05:21:53.089Z,3.40
2022-09-29T05:23:55.266Z,3.40
2022-09-29T05:26:02.305Z,4.00
2022-09-29T05:28:03.970Z,3.40
2022-09-29T05:30:07.097Z,3.67
2022-09-29T05:32:08.870Z,3.07
2022-09-29T05:34:11.329Z,3.20
2022-09-29T05:36:13.493Z,3.53
2022-09-29T05:38:16.527Z,3.00
2022-09-29T05:40:19.689Z,3.20
2022-09-29T05:42:21.439Z,2.90
2022-09-29T05:44:24.098Z,3.00
2022-09-29T05:46:26.548Z,2.97
2022-09-29T05:48:32.112Z,2.60
2022-09-29T05:50:41.378Z,2.67
2022-09-29T05:52:43.065Z,3.30
2022-09-29T05:54:44.801Z,3.03
2022-09-29T05:56:47.401Z,2.30
2022-09-29T05:58:49.595Z,2.50
2022-09-29T06:00:51.343Z,4.10
2022-09-29T06:02:52.999Z,9.70
2022-09-29T06:04:54.627Z,4.13
2022-09-29T06:06:57.179Z,3.07
2022-09-29T06:08:59.303Z,3.67
2022-09-29T06:11:13.091Z,4.17
2022-09-29T06:13:16.778Z,3.40
2022-09-29T06:15:18.573Z,2.80
2022-09-29T06:17:20.588Z,2.70
2022-09-29T06:19:22.471Z,2.43
2022-09-29T06:21:26.860Z,2.47
2022-09-29T06:23:28.586Z,2.60
2022-09-29T06:25:30.183Z,2.30
2022-09-29T06:27:32.002Z,2.40
2022-09-29T06:29:34.098Z,2.00
2022-09-29T06:31:36.524Z,2.70
2022-09-29T06:33:38.759Z,2.30
2022-09-29T06:36:07.450Z,2.03
2022-09-29T06:38:10.088Z,2.60
2022-09-29T06:40:11.926Z,2.80
2022-09-29T06:42:13.566Z,3.00
2022-09-29T06:44:16.443Z,2.83
2022-09-29T06:46:18.076Z,2.53
2022-09-29T06:48:20.648Z,2.40
2022-09-29T06:50:22.314Z,2.60
2022-09-29T06:52:27.783Z,2.20
2022-09-29T06:54:33.427Z,2.00
2022-09-29T06:56:35.364Z,2.00
2022-09-29T06:58:38.078Z,1.87
2022-09-29T07:00:40.466Z,1.90
2022-09-29T07:02:47.323Z,1.90
2022-09-29T07:04:49.213Z,1.90
2022-09-29T07:06:51.443Z,1.70
2022-09-29T07:08:57.456Z,1.80
2022-09-29T07:10:59.106Z,1.93
2022-09-29T07:13:01.976Z,1.70
2022-09-29T07:15:04.196Z,2.07
2022-09-29T07:17:06.922Z,1.40
2022-09-29T07:19:09.056Z,1.93
2022-09-29T07:21:16.330Z,1.50
2022-09-29T07:23:18.203Z,1.90
2022-09-29T07:25:46.980Z,1.50
2022-09-29T07:27:43.126Z,1.40
2022-09-29T07:29:53.103Z,1.67
2022-09-29T07:32:00.694Z,1.37
2022-09-29T07:34:02.652Z,1.80
2022-09-29T07:36:05.274Z,1.50
2022-09-29T07:38:06.919Z,1.40
2022-09-29T07:40:11.340Z,7.17
2022-09-29T07:42:13.039Z,2.27
2022-09-29T07:44:14.674Z,1.60
2022-09-29T07:46:17.002Z,1.90
2022-09-29T07:48:20.297Z,1.97
2022-09-29T07:50:21.990Z,1.80
2022-09-29T07:52:23.935Z,1.63
2022-09-29T07:54:29.361Z,1.70
2022-09-29T07:56:33.296Z,1.97
2022-09-29T07:58:35.608Z,1.40
2022-09-29T08:00:37.788Z,1.60
2022-09-29T08:02:39.565Z,1.80
2022-09-29T08:04:43.776Z,1.67
2022-09-29T08:06:46.366Z,2.23
2022-09-29T08:09:01.530Z,1.67
2022-09-29T08:11:17.209Z,1.80
2022-09-29T08:13:24.548Z,1.60
2022-09-29T08:15:26.941Z,1.50
2022-09-29T08:17:29.003Z,1.67
2022-09-29T08:19:30.613Z,1.60
2022-09-29T08:21:37.376Z,2.20
2022-09-29T08:23:41.529Z,1.77
2022-09-29T08:25:52.979Z,1.73
2022-09-29T08:28:02.496Z,1.87
2022-09-29T08:30:05.670Z,1.87
2022-09-29T08:32:07.289Z,1.70
2022-09-29T08:34:09.374Z,2.20
2022-09-29T08:36:16.755Z,1.70
2022-09-29T08:38:18.974Z,1.43
2022-09-29T08:40:23.612Z,1.50
2022-09-29T08:42:56.945Z,1.80
2022-09-29T08:45:14.187Z,1.60
2022-09-29T08:47:43.398Z,1.70
2022-09-29T08:50:03.565Z,1.93
2022-09-29T08:52:23.103Z,2.00
2022-09-29T08:54:38.406Z,1.60
2022-09-29T08:56:41.098Z,2.47
2022-09-29T08:58:43.330Z,1.97
2022-09-29T09:01:12.229Z,2.20
2022-09-29T09:03:33.607Z,2.23
2022-09-29T09:05:44.351Z,2.53
2022-09-29T09:08:03.490Z,2.20
2022-09-29T09:10:31.454Z,2.47
2022-09-29T09:13:01.000Z,1.80
2022-09-29T09:15:28.801Z,2.37
2022-09-29T09:17:50.652Z,1.80
2022-09-29T09:20:11.784Z,2.07
2022-09-29T09:22:50.686Z,2.00
2022-09-29T09:25:01.547Z,2.60
2022-09-29T09:27:04.101Z,1.93
2022-09-29T09:29:33.882Z,2.03
2022-09-29T09:32:14.292Z,2.20
2022-09-29T09:34:38.996Z,2.07
2022-09-29T09:37:08.206Z,2.10
2022-09-29T09:39:22.225Z,2.40
2022-09-29T09:41:26.059Z,1.87
2022-09-29T09:43:37.419Z,1.90
2022-09-29T09:45:51.649Z,2.10
2022-09-29T09:48:03.046Z,1.97
2022-09-29T09:50:19.147Z,1.70
2022-09-29T09:52:31.554Z,1.50
2022-09-29T09:54:40.931Z,2.10
2022-09-29T09:56:59.772Z,1.97
2022-09-29T09:59:20.538Z,2.23
2022-09-29T10:01:22.606Z,1.80
2022-09-29T10:03:24.815Z,1.93
2022-09-29T10:05:36.949Z,1.97
2022-09-29T10:07:38.670Z,1.70
2022-09-29T10:09:40.493Z,1.80
2022-09-29T10:11:44.315Z,2.00
2022-09-29T10:13:47.229Z,1.53
2022-09-29T10:15:58.366Z,1.73
2022-09-29T10:18:13.121Z,1.50
2022-09-29T10:20:31.736Z,1.93
2022-09-29T10:22:34.785Z,1.67
2022-09-29T10:24:36.404Z,1.73
2022-09-29T10:26:45.730Z,1.47
2022-09-29T10:28:52.538Z,1.60
2022-09-29T10:30:55.087Z,1.80
2022-09-29T10:33:01.307Z,2.03
2022-09-29T10:35:16.058Z,1.90
2022-09-29T10:37:24.135Z,1.57
2022-09-29T10:39:48.179Z,1.67
2022-09-29T10:41:55.464Z,2.13
2022-09-29T10:44:14.081Z,1.80
2022-09-29T10:46:49.301Z,1.57
2022-09-29T10:49:18.564Z,1.70
2022-09-29T10:51:25.024Z,2.73
2022-09-29T10:53:38.257Z,2.40
2022-09-29T10:55:51.871Z,2.13
2022-09-29T10:58:00.145Z,1.90
2022-09-29T11:00:02.681Z,1.93
2022-09-29T11:02:05.464Z,1.70
2022-09-29T11:04:33.499Z,2.13
2022-09-29T11:06:43.008Z,2.20
2022-09-29T11:09:06.807Z,2.20
2022-09-29T11:11:22.592Z,2.10
2022-09-29T11:13:24.594Z,2.13
2022-09-29T11:15:39.307Z,2.20
2022-09-29T11:17:49.875Z,2.30
2022-09-29T11:19:53.989Z,1.60
2022-09-29T11:22:02.091Z,1.50
2022-09-29T11:24:20.078Z,1.70
2022-09-29T11:26:30.575Z,1.57
2022-09-29T11:28:55.425Z,1.80
2022-09-29T11:30:57.295Z,1.70
2022-09-29T11:33:16.219Z,1.60
2022-09-29T11:35:49.618Z,1.63
2022-09-29T11:37:58.045Z,1.60
2022-09-29T11:40:16.087Z,1.57
2022-09-29T11:42:58.223Z,1.80
2022-09-29T11:45:01.583Z,1.80
2022-09-29T11:47:28.360Z,1.57
2022-09-29T11:49:51.059Z,1.50
2022-09-29T11:52:17.618Z,2.20
2022-09-29T11:54:50.526Z,1.70
2022-09-29T11:57:17.449Z,1.63
2022-09-29T11:59:55.958Z,1.60
2022-09-29T12:02:27.523Z,1.73
2022-09-29T12:04:39.244Z,1.63
2022-09-29T12:06:59.742Z,1.77
2022-09-29T12:09:18.487Z,1.90
2022-09-29T12:12:05.393Z,1.63
2022-09-29T12:14:20.740Z,1.50
2022-09-29T12:16:29.190Z,1.53
2022-09-29T12:18:49.597Z,1.60
2022-09-29T12:20:54.540Z,1.73
2022-09-29T12:23:01.099Z,1.17
2022-09-29T12:25:03.377Z,1.50
2022-09-29T12:27:26.857Z,1.40
2022-09-29T12:29:44.793Z,2.50
2022-09-29T12:31:50.330Z,1.57
2022-09-29T12:34:06.292Z,1.47
2022-09-29T12:36:34.298Z,1.70
2022-09-29T12:38:42.129Z,1.73
2022-09-29T12:41:01.111Z,1.30
2022-09-29T12:43:12.577Z,1.40
2022-09-29T12:45:35.035Z,1.33
2022-09-29T12:48:01.506Z,1.25
2022-09-29T12:50:16.272Z,1.23
2022-09-29T12:52:29.275Z,1.40
2022-09-29T12:54:59.773Z,1.30
2022-09-29T12:57:19.312Z,1.60
2022-09-29T12:59:46.279Z,1.50
2022-09-29T13:01:54.299Z,1.70
2022-09-29T13:04:33.783Z,1.65
2022-09-29T13:06:51.525Z,1.95
2022-09-29T13:08:58.625Z,1.55
2022-09-29T13:11:17.073Z,1.70
2022-09-29T13:13:37.433Z,2.00
2022-09-29T13:15:52.227Z,1.70
2022-09-29T13:17:59.516Z,1.67
2022-09-29T13:20:33.646Z,1.90
2022-09-29T13:23:02.826Z,1.77
2022-09-29T13:25:30.972Z,1.50
2022-09-29T13:27:42.777Z,1.50
2022-09-29T13:29:56.394Z,1.90
2022-09-29T13:31:59.294Z,1.73
2022-09-29T13:34:03.019Z,1.67
2022-09-29T13:36:06.370Z,2.03
2022-09-29T13:38:14.596Z,1.50
2022-09-29T13:40:25.956Z,1.50
2022-09-29T13:42:36.796Z,1.70
2022-09-29T13:44:39.085Z,2.47
2022-09-29T13:46:40.812Z,2.37
2022-09-29T13:48:53.096Z,2.00
2022-09-29T13:50:59.550Z,1.80
2022-09-29T13:53:22.189Z,1.67
2022-09-29T13:55:50.350Z,1.63
2022-09-29T13:57:53.525Z,1.80
2022-09-29T13:59:55.410Z,1.47
2022-09-29T14:01:57.927Z,1.47
2022-09-29T14:04:38.170Z,1.80
2022-09-29T14:06:47.532Z,1.50
2022-09-29T14:09:07.994Z,2.10
2022-09-29T14:11:19.430Z,1.87
2022-09-29T14:13:40.981Z,2.13
2022-09-29T14:16:18.185Z,1.77
2022-09-29T14:19:02.242Z,1.80
2022-09-29T14:21:13.723Z,1.50
2022-09-29T14:23:44.676Z,1.30
2022-09-29T14:25:48.417Z,1.67
2022-09-29T14:28:05.852Z,1.60
2022-09-29T14:30:18.673Z,1.83
2022-09-29T14:32:23.563Z,1.70
2022-09-29T14:34:32.369Z,1.60
2022-09-29T14:36:36.058Z,1.47
2022-09-29T14:39:14.415Z,1.30
2022-09-29T14:41:32.164Z,1.57
2022-09-29T14:43:44.416Z,1.70
2022-09-29T14:46:21.995Z,1.77
2022-09-29T14:48:56.323Z,1.70
2022-09-29T14:51:30.257Z,1.63
2022-09-29T14:53:54.583Z,1.70
2022-09-29T14:56:31.860Z,1.83
2022-09-29T14:59:02.140Z,1.70
2022-09-29T15:01:13.419Z,1.87
2022-09-29T15:03:27.849Z,1.47
2022-09-29T15:05:34.684Z,1.60
2022-09-29T15:07:41.436Z,1.60
2022-09-29T15:09:52.780Z,1.90
2022-09-29T15:12:03.129Z,1.50
2022-09-29T15:14:26.580Z,1.60
2022-09-29T15:16:42.217Z,1.97
2022-09-29T15:19:04.100Z,2.10
2022-09-29T15:21:07.711Z,2.50
2022-09-29T15:23:44.596Z,2.00
2022-09-29T15:25:47.173Z,1.60
2022-09-29T15:27:52.035Z,1.70
2022-09-29T15:29:58.276Z,2.10
2022-09-29T15:32:01.034Z,1.60
2022-09-29T15:34:04.586Z,2.07
2022-09-29T15:36:16.258Z,1.50
2022-09-29T15:38:23.361Z,1.77
2022-09-29T15:40:28.420Z,1.63
2022-09-29T15:42:30.318Z,1.70
2022-09-29T15:44:34.074Z,1.67
2022-09-29T15:46:49.604Z,1.93
2022-09-29T15:49:13.311Z,1.80
2022-09-29T15:51:18.805Z,2.03
2022-09-29T15:53:21.325Z,1.90
2022-09-29T15:55:25.592Z,1.77
2022-09-29T15:57:50.305Z,1.77
2022-09-29T15:59:54.660Z,1.73
2022-09-29T16:02:05.961Z,4.00
2022-09-29T16:06:23.515Z,3.77
2022-09-29T16:08:28.686Z,2.17
2022-09-29T16:10:33.634Z,2.10
2022-09-29T16:12:41.445Z,2.53
2022-09-29T16:14:46.928Z,2.43
2022-09-29T16:16:54.012Z,2.10
2022-09-29T16:19:01.491Z,2.30
2022-09-29T16:21:10.216Z,2.00
2022-09-29T16:23:27.154Z,1.77
2022-09-29T16:25:29.893Z,1.80
2022-09-29T16:28:00.573Z,2.10
2022-09-29T16:30:19.758Z,2.37
2022-09-29T16:32:36.271Z,2.70
2022-09-29T16:34:41.591Z,3.37
2022-09-29T16:36:52.342Z,2.70
2022-09-29T16:38:56.071Z,3.37
2022-09-29T16:40:59.392Z,3.60
2022-09-29T16:43:02.305Z,4.23
2022-09-29T16:45:07.985Z,2.83
2022-09-29T16:47:15.123Z,2.70
2022-09-29T16:49:29.470Z,2.90
2022-09-29T16:51:39.597Z,3.80
2022-09-29T16:53:42.374Z,2.93
2022-09-29T16:56:00.215Z,2.83
2022-09-29T16:58:11.631Z,2.33
2022-09-29T17:00:14.040Z,2.67
2022-09-29T17:02:16.627Z,2.20
2022-09-29T17:04:18.654Z,2.50
2022-09-29T17:06:21.198Z,2.70
2022-09-29T17:08:29.329Z,2.13
2022-09-29T17:10:31.809Z,2.13
2022-09-29T17:12:35.730Z,2.23
2022-09-29T17:14:38.289Z,3.40
2022-09-29T17:16:41.960Z,3.40
2022-09-29T17:18:43.634Z,3.10
2022-09-29T17:20:45.804Z,3.60
2022-09-29T17:22:48.974Z,3.30
2022-09-29T17:24:51.006Z,2.27
2022-09-29T17:27:11.443Z,2.37
2022-09-29T17:29:13.247Z,2.83
2022-09-29T17:31:15.568Z,4.53
2022-09-29T17:33:19.395Z,5.00
2022-09-29T17:35:24.235Z,6.10
2022-09-29T17:37:26.277Z,3.47
2022-09-29T17:39:29.346Z,4.50
2022-09-29T17:41:32.820Z,2.77
2022-09-29T17:43:34.677Z,4.70
2022-09-29T17:45:41.811Z,6.30
2022-09-29T17:47:45.755Z,7.17
2022-09-29T17:49:51.224Z,4.73
2022-09-29T17:51:53.031Z,3.50
2022-09-29T17:53:55.230Z,3.70
2022-09-29T17:55:57.724Z,3.43
2022-09-29T17:58:00.162Z,2.90
2022-09-29T18:00:01.884Z,3.60
2022-09-29T18:02:04.425Z,2.87
2022-09-29T18:04:08.204Z,2.70
2022-09-29T18:06:21.740Z,3.00
2022-09-29T18:08:28.939Z,2.70
2022-09-29T18:10:37.415Z,2.80
2022-09-29T18:12:39.167Z,2.83
2022-09-29T18:14:40.781Z,2.57
2022-09-29T18:16:42.634Z,2.90
2022-09-29T18:18:46.226Z,2.70
2022-09-29T18:20:50.607Z,2.50
2022-09-29T18:22:52.597Z,2.60
2022-09-29T18:24:54.672Z,2.70
2022-09-29T18:26:56.301Z,2.47
2022-09-29T18:28:58.314Z,2.50
2022-09-29T18:31:25.458Z,2.70
2022-09-29T18:33:28.650Z,6.23
2022-09-29T18:35:33.952Z,8.17
2022-09-29T18:37:35.630Z,8.00
2022-09-29T18:39:37.262Z,7.30
2022-09-29T18:41:39.939Z,5.60
2022-09-29T18:43:42.294Z,7.80
2022-09-29T18:45:45.240Z,4.40
2022-09-29T18:47:49.881Z,4.33
2022-09-29T18:49:52.890Z,3.80
2022-09-29T18:51:54.601Z,4.97
2022-09-29T18:53:58.883Z,5.97
2022-09-29T18:56:03.843Z,5.57
2022-09-29T18:58:06.179Z,4.27
2022-09-29T19:00:10.949Z,4.80
2022-09-29T19:02:13.295Z,6.10
2022-09-29T19:04:15.625Z,4.60
2022-09-29T19:06:17.767Z,4.47
2022-09-29T19:08:20.358Z,6.27
2022-09-29T19:10:25.738Z,4.83
2022-09-29T19:12:30.229Z,3.73
2022-09-29T19:14:34.229Z,3.07
2022-09-29T19:16:37.059Z,4.03
2022-09-29T19:18:38.803Z,3.83
2022-09-29T19:20:40.739Z,3.47
2022-09-29T19:22:43.234Z,2.90
2022-09-29T19:24:46.338Z,3.20
2022-09-29T19:26:48.126Z,3.67
2022-09-29T19:28:50.802Z,4.10
2022-09-29T19:30:54.954Z,4.40
2022-09-29T19:32:56.722Z,3.10
2022-09-29T19:34:58.866Z,3.57
2022-09-29T19:37:01.460Z,3.70
2022-09-29T19:39:04.221Z,5.03
2022-09-29T19:41:13.109Z,4.90
2022-09-29T19:43:16.016Z,5.50
2022-09-29T19:45:20.604Z,6.43
2022-09-29T19:47:23.486Z,4.67
2022-09-29T19:49:25.274Z,4.03
2022-09-29T19:51:47.570Z,4.70
2022-09-29T19:53:49.921Z,3.43
2022-09-29T19:55:53.144Z,3.70
2022-09-29T19:57:55.690Z,3.80
2022-09-29T19:59:58.734Z,3.70
2022-09-29T20:02:02.296Z,3.20
2022-09-29T20:04:04.081Z,4.30
2022-09-29T20:06:10.122Z,3.70
2022-09-29T20:08:11.736Z,3.87
2022-09-29T20:10:16.586Z,3.40
2022-09-29T20:12:19.547Z,3.83
2022-09-29T20:14:24.259Z,3.53
2022-09-29T20:16:25.946Z,2.73
2022-09-29T20:18:29.533Z,3.80
2022-09-29T20:20:31.153Z,3.77
2022-09-29T20:22:35.037Z,3.20
2022-09-29T20:24:37.010Z,3.00
2022-09-29T20:26:39.131Z,3.10
2022-09-29T20:28:41.333Z,2.80
2022-09-29T20:30:42.950Z,3.60
2022-09-29T20:32:44.994Z,3.73
2022-09-29T20:34:46.924Z,4.13
2022-09-29T20:36:54.409Z,3.60
2022-09-29T20:38:56.584Z,3.57
2022-09-29T20:41:03.994Z,3.70
2022-09-29T20:43:05.617Z,3.23
2022-09-29T20:45:07.827Z,3.50
2022-09-29T20:47:09.806Z,3.30
2022-09-29T20:49:11.450Z,3.97
2022-09-29T20:51:17.305Z,4.80
2022-09-29T20:53:19.752Z,3.50
2022-09-29T20:55:23.151Z,3.20
2022-09-29T20:57:25.133Z,3.90
2022-09-29T20:59:26.809Z,3.87
2022-09-29T21:01:32.254Z,4.73
2022-09-29T21:03:34.014Z,3.73
2022-09-29T21:05:35.730Z,4.17
2022-09-29T21:07:38.469Z,3.97
2022-09-29T21:09:40.231Z,4.70
2022-09-29T21:11:43.830Z,3.77
2022-09-29T21:13:52.416Z,4.30
2022-09-29T21:15:54.269Z,4.77
2022-09-29T21:17:56.698Z,4.37
2022-09-29T21:19:58.283Z,4.23
2022-09-29T21:22:00.306Z,4.73
2022-09-29T21:24:03.497Z,4.50
2022-09-29T21:26:07.967Z,4.57
2022-09-29T21:28:09.614Z,4.70
2022-09-29T21:30:11.363Z,4.40
2022-09-29T21:32:13.534Z,4.73
2022-09-29T21:34:15.579Z,5.07
2022-09-29T21:36:18.953Z,5.70
2022-09-29T21:38:21.169Z,5.53
2022-09-29T21:40:24.851Z,5.43
2022-09-29T21:42:27.186Z,6.20
2022-09-29T21:44:28.837Z,5.77
2022-09-29T21:46:33.585Z,5.43
2022-09-29T21:48:36.130Z,5.50
2022-09-29T21:50:37.927Z,5.33
2022-09-29T21:52:40.469Z,5.80
2022-09-29T21:54:42.373Z,5.73
2022-09-29T21:56:46.629Z,5.70
2022-09-29T21:58:49.697Z,4.90
2022-09-29T22:00:51.929Z,5.77
2022-09-29T22:02:54.239Z,7.17
2022-09-29T22:04:57.091Z,6.80
2022-09-29T22:06:59.011Z,12.53
2022-09-29T22:09:02.405Z,12.13
2022-09-29T22:11:04.989Z,10.10
2022-09-29T22:13:06.614Z,7.20
2022-09-29T22:15:08.515Z,8.03
2022-09-29T22:17:10.149Z,10.03
2022-09-29T22:19:28.446Z,9.73
2022-09-29T22:21:30.205Z,10.23
2022-09-29T22:23:32.838Z,10.10
2022-09-29T22:25:34.793Z,10.03
2022-09-29T22:27:36.577Z,10.80
2022-09-29T22:29:38.888Z,8.37
2022-09-29T22:31:41.801Z,9.20
2022-09-29T22:33:45.295Z,9.77
2022-09-29T22:35:54.237Z,9.90
2022-09-29T22:37:55.841Z,9.63
2022-09-29T22:39:57.740Z,9.60
2022-09-29T22:42:01.422Z,9.47
2022-09-29T22:44:03.150Z,10.00
2022-09-29T22:46:08.235Z,9.87
2022-09-29T22:48:10.654Z,10.10
2022-09-29T22:50:12.441Z,11.73
2022-09-29T22:52:14.206Z,10.90
2022-09-29T22:54:16.088Z,11.10
2022-09-29T22:56:21.037Z,11.00
2022-09-29T22:58:26.399Z,10.27
2022-09-29T23:00:28.362Z,11.00
2022-09-29T23:02:30.842Z,10.90
2022-09-29T23:04:32.769Z,10.47
2022-09-29T23:06:35.459Z,11.23
2022-09-29T23:08:37.729Z,12.17
2022-09-29T23:10:47.210Z,11.53
2022-09-29T23:12:49.182Z,11.50
2022-09-29T23:14:51.978Z,11.13
2022-09-29T23:16:53.661Z,11.67
2022-09-29T23:18:56.941Z,12.03
2022-09-29T23:21:05.997Z,12.63
2022-09-29T23:23:08.289Z,12.50
2022-09-29T23:25:09.936Z,12.87
2022-09-29T23:27:11.735Z,12.43
2022-09-29T23:29:14.317Z,13.07
2022-09-29T23:31:16.154Z,13.70
2022-09-29T23:33:18.101Z,13.57
2022-09-29T23:35:19.809Z,14.67
2022-09-29T23:37:21.485Z,15.33
2022-09-29T23:39:24.127Z,13.43
2022-09-29T23:41:27.418Z,14.20
2022-09-29T23:43:29.377Z,14.33
2022-09-29T23:45:31.115Z,14.30
2022-09-29T23:47:33.966Z,15.90
2022-09-29T23:49:35.856Z,16.00
2022-09-29T23:51:43.023Z,15.10
2022-09-29T23:53:45.016Z,16.07
2022-09-29T23:55:46.667Z,17.33
2022-09-29T23:57:48.267Z,16.90
2022-09-29T23:59:50.082Z,16.00
